createdAt,value
2022-07-25T00:01:48.362Z,6.32
2022-07-25T00:06:53.630Z,9.13
2022-07-25T00:11:57.209Z,6.63
2022-07-25T00:17:01.794Z,7.03
2022-07-25T00:22:07.099Z,7.30
2022-07-25T00:27:10.682Z,6.60
2022-07-25T00:32:14.321Z,7.25
2022-07-25T00:37:19.544Z,5.43
2022-07-25T00:42:23.104Z,6.75
2022-07-25T00:47:27.067Z,6.38
2022-07-25T00:52:33.366Z,9.20
2022-07-25T00:57:36.960Z,8.23
2022-07-25T01:02:40.756Z,5.65
2022-07-25T01:07:48.176Z,6.63
2022-07-25T01:12:53.679Z,6.35
2022-07-25T01:17:57.341Z,6.55
2022-07-25T01:23:02.562Z,6.38
2022-07-25T01:28:06.583Z,10.93
2022-07-25T01:33:10.173Z,7.75
2022-07-25T01:38:15.788Z,6.43
2022-07-25T01:43:19.470Z,5.50
2022-07-25T01:48:23.091Z,5.10
2022-07-25T01:53:28.310Z,8.90
2022-07-25T01:58:32.522Z,6.97
2022-07-25T02:03:36.121Z,5.55
2022-07-25T02:08:41.363Z,8.23
2022-07-25T02:13:45.175Z,7.07
2022-07-25T02:18:48.758Z,8.52
2022-07-25T02:23:53.998Z,6.40
2022-07-25T02:28:58.327Z,6.28
2022-07-25T02:34:01.950Z,6.40
2022-07-25T02:39:07.344Z,7.13
2022-07-25T02:44:13.675Z,5.45
2022-07-25T02:49:17.339Z,8.13
2022-07-25T02:54:22.672Z,8.00
2022-07-25T03:04:35.931Z,6.80
2022-07-25T03:09:41.266Z,7.13
2022-07-25T03:19:47.703Z,5.60
2022-07-25T03:24:53.621Z,6.28
2022-07-25T03:29:57.392Z,6.13
2022-07-25T03:35:01.092Z,5.35
2022-07-25T03:40:07.400Z,5.53
2022-07-25T03:45:11.766Z,6.45
2022-07-25T03:50:15.387Z,5.10
2022-07-25T03:55:20.645Z,5.00
2022-07-25T04:00:24.288Z,5.53
2022-07-25T04:05:28.619Z,5.18
2022-07-25T04:10:33.888Z,5.22
2022-07-25T04:15:37.819Z,5.95
2022-07-25T04:20:41.892Z,5.78
2022-07-25T04:25:47.170Z,5.55
2022-07-25T04:30:50.790Z,5.13
2022-07-25T04:35:54.482Z,5.45
2022-07-25T04:40:59.720Z,5.25
2022-07-25T04:46:03.402Z,4.72
2022-07-25T04:51:07.370Z,6.38
2022-07-25T04:56:12.603Z,4.47
2022-07-25T05:01:16.258Z,7.18
2022-07-25T05:06:20.151Z,4.68
2022-07-25T05:11:25.358Z,5.97
2022-07-25T05:16:28.990Z,6.87
2022-07-25T05:21:33.323Z,5.38
2022-07-25T05:26:38.543Z,5.47
2022-07-25T05:31:42.206Z,5.03
2022-07-25T05:36:47.468Z,4.18
2022-07-25T05:41:53.848Z,4.22
2022-07-25T05:46:57.545Z,4.85
2022-07-25T05:52:01.185Z,4.65
2022-07-25T05:57:06.514Z,4.60
2022-07-25T06:02:10.207Z,3.70
2022-07-25T06:07:17.081Z,4.10
2022-07-25T06:12:24.312Z,4.70
2022-07-25T06:17:32.247Z,3.85
2022-07-25T06:22:36.305Z,5.20
2022-07-25T06:27:41.596Z,3.70
2022-07-25T06:32:45.202Z,4.50
2022-07-25T06:37:48.819Z,4.22
2022-07-25T06:42:54.346Z,4.95
2022-07-25T06:47:57.929Z,4.13
2022-07-25T06:53:01.537Z,4.75
2022-07-25T06:58:06.788Z,3.05
2022-07-25T07:03:10.428Z,3.20
2022-07-25T07:08:14.042Z,3.65
2022-07-25T07:13:24.111Z,3.83
2022-07-25T07:18:28.126Z,3.33
2022-07-25T07:23:31.899Z,3.47
2022-07-25T07:28:37.878Z,5.05
2022-07-25T07:33:41.471Z,4.17
2022-07-25T07:38:45.153Z,4.32
2022-07-25T07:43:50.398Z,4.32
2022-07-25T07:48:53.991Z,4.30
2022-07-25T07:53:57.619Z,3.50
2022-07-25T07:59:02.993Z,3.45
2022-07-25T08:04:07.082Z,3.50
2022-07-25T08:09:10.691Z,4.05
2022-07-25T08:14:15.928Z,4.50
2022-07-25T08:19:19.516Z,4.03
2022-07-25T08:24:23.098Z,5.53
2022-07-25T08:29:28.589Z,4.20
2022-07-25T08:34:32.215Z,4.80
2022-07-25T08:39:35.811Z,4.28
2022-07-25T08:44:44.765Z,4.97
2022-07-25T08:49:48.768Z,4.13
2022-07-25T08:54:52.854Z,5.05
2022-07-25T09:00:01.070Z,4.40
2022-07-25T09:05:05.250Z,4.55
2022-07-25T09:10:17.718Z,5.40
2022-07-25T09:15:30.650Z,5.18
2022-07-25T09:20:44.427Z,4.50
2022-07-25T09:25:48.027Z,4.28
2022-07-25T09:30:57.177Z,4.93
2022-07-25T09:36:10.380Z,5.30
2022-07-25T09:41:14.020Z,5.72
2022-07-25T09:46:29.839Z,5.47
2022-07-25T09:51:34.423Z,4.10
2022-07-25T09:56:38.011Z,4.63
2022-07-25T10:01:51.786Z,4.53
2022-07-25T10:07:03.706Z,4.78
2022-07-25T10:12:09.367Z,5.30
2022-07-25T10:17:21.906Z,4.18
2022-07-25T10:22:55.150Z,5.03
2022-07-25T10:28:08.128Z,4.45
2022-07-25T10:33:15.641Z,4.20
2022-07-25T10:38:25.616Z,4.03
2022-07-25T10:43:29.334Z,4.35
2022-07-25T10:48:34.629Z,5.95
2022-07-25T10:53:39.083Z,5.30
2022-07-25T10:58:47.417Z,3.60
2022-07-25T11:03:53.481Z,4.30
2022-07-25T11:13:59.959Z,5.38
2022-07-25T11:19:05.436Z,3.42
2022-07-25T11:24:09.294Z,3.60
2022-07-25T11:29:20.873Z,3.30
2022-07-25T11:34:28.629Z,3.78
2022-07-25T11:39:36.709Z,4.75
2022-07-25T11:44:47.152Z,4.05
2022-07-25T11:49:53.783Z,3.90
2022-07-25T11:54:59.047Z,3.38
2022-07-25T12:00:05.472Z,2.93
2022-07-25T12:05:13.331Z,3.35
2022-07-25T12:10:19.730Z,2.78
2022-07-25T12:15:25.283Z,2.92
2022-07-25T12:20:34.262Z,3.50
2022-07-25T12:25:38.752Z,4.28
2022-07-25T12:30:44.450Z,4.75
2022-07-25T12:35:49.758Z,2.47
2022-07-25T12:40:53.568Z,4.40
2022-07-25T12:45:57.275Z,3.05
2022-07-25T12:51:02.531Z,4.30
2022-07-25T12:56:06.476Z,3.40
2022-07-25T13:01:10.109Z,4.80
2022-07-25T13:06:15.408Z,4.88
2022-07-25T13:11:19.010Z,3.70
2022-07-25T13:16:22.719Z,4.43
2022-07-25T13:21:28.055Z,3.63
2022-07-25T13:26:32.411Z,4.67
2022-07-25T13:31:39.257Z,3.47
2022-07-25T13:36:45.010Z,4.20
2022-07-25T13:41:49.341Z,3.10
2022-07-25T13:46:53.030Z,3.22
2022-07-25T13:51:58.227Z,3.65
2022-07-25T13:57:02.920Z,4.27
2022-07-25T14:02:06.543Z,4.85
2022-07-25T14:07:12.178Z,5.55
2022-07-25T14:12:15.763Z,3.17
2022-07-25T14:17:19.624Z,4.88
2022-07-25T14:22:24.978Z,3.30
2022-07-25T14:27:28.589Z,3.90
2022-07-25T14:32:32.255Z,4.85
2022-07-25T14:37:37.511Z,5.28
2022-07-25T14:42:41.379Z,3.93
2022-07-25T14:47:45.931Z,5.18
2022-07-25T14:52:51.154Z,4.07
2022-07-25T14:57:54.733Z,3.50
2022-07-25T15:02:58.537Z,5.50
2022-07-25T15:08:03.802Z,3.35
2022-07-25T15:13:29.965Z,3.57
2022-07-25T15:18:31.649Z,3.30
2022-07-25T15:23:37.052Z,3.33
2022-07-25T15:28:40.620Z,3.27
2022-07-25T15:33:44.244Z,3.30
2022-07-25T15:38:50.195Z,2.20
2022-07-25T15:43:53.939Z,2.87
2022-07-25T15:48:57.635Z,3.20
2022-07-25T15:54:03.191Z,2.85
2022-07-25T15:59:06.912Z,3.13
2022-07-25T16:04:10.786Z,2.75
2022-07-25T16:09:16.069Z,3.10
2022-07-25T16:14:19.691Z,2.53
2022-07-25T16:19:23.305Z,3.30
2022-07-25T16:24:28.614Z,2.80
2022-07-25T16:29:32.381Z,2.13
2022-07-25T16:34:36.095Z,2.58
2022-07-25T16:39:41.333Z,2.85
2022-07-25T16:44:44.887Z,2.42
2022-07-25T16:49:48.523Z,2.60
2022-07-25T16:54:53.892Z,2.67
2022-07-25T16:59:57.533Z,2.90
2022-07-25T17:05:01.315Z,3.53
2022-07-25T17:10:07.405Z,2.65
2022-07-25T17:15:11.756Z,3.13
2022-07-25T17:20:15.372Z,6.33
2022-07-25T17:25:20.849Z,3.55
2022-07-25T17:30:25.258Z,2.80
2022-07-25T17:35:29.014Z,2.90
2022-07-25T17:40:34.718Z,1.70
2022-07-25T17:45:38.469Z,1.58
2022-07-25T17:50:42.087Z,1.73
2022-07-25T17:55:47.552Z,1.70
2022-07-25T18:00:51.137Z,1.33
2022-07-25T18:05:54.834Z,1.75
2022-07-25T18:11:00.100Z,3.67
2022-07-25T18:16:03.777Z,1.95
2022-07-25T18:21:07.565Z,0.70
2022-07-25T18:26:12.855Z,3.30
2022-07-25T18:31:16.509Z,2.70
2022-07-25T18:36:20.211Z,2.20
2022-07-25T18:41:29.620Z,2.30
2022-07-25T18:46:33.992Z,1.90
2022-07-25T18:51:37.693Z,1.38
2022-07-25T18:56:44.050Z,1.67
2022-07-25T19:01:47.684Z,3.30
2022-07-25T19:06:51.369Z,2.15
2022-07-25T19:11:56.694Z,1.20
2022-07-25T19:17:03.494Z,2.20
2022-07-25T19:22:07.100Z,1.17
2022-07-25T19:27:12.375Z,1.92
2022-07-25T19:32:16.271Z,1.60
2022-07-25T19:37:21.880Z,0.70
2022-07-25T19:42:27.171Z,1.08
2022-07-25T19:47:30.760Z,1.17
2022-07-25T19:52:37.048Z,0.70
2022-07-25T19:57:42.288Z,4.68
2022-07-25T20:02:46.022Z,2.47
2022-07-25T20:07:50.114Z,1.13
2022-07-25T20:12:59.578Z,1.13
2022-07-25T20:18:05.071Z,2.63
2022-07-25T20:23:09.121Z,1.33
2022-07-25T20:28:14.381Z,1.27
2022-07-25T20:33:17.932Z,1.02
2022-07-25T20:38:22.054Z,1.52
2022-07-25T20:43:27.314Z,1.83
2022-07-25T20:48:42.426Z,2.25
2022-07-25T20:53:46.269Z,2.40
2022-07-25T20:58:59.075Z,2.60
2022-07-25T21:04:07.274Z,2.55
2022-07-25T21:09:11.463Z,0.98
2022-07-25T21:14:16.991Z,1.30
2022-07-25T21:19:21.020Z,1.05
2022-07-25T21:24:24.605Z,2.90
2022-07-25T21:29:32.101Z,1.13
2022-07-25T21:34:35.777Z,2.47
2022-07-25T21:39:39.547Z,1.00
2022-07-25T21:44:45.931Z,1.27
2022-07-25T21:49:49.626Z,1.10
2022-07-25T21:54:53.432Z,1.45
2022-07-25T21:59:58.668Z,1.27
2022-07-25T22:05:02.266Z,1.83
2022-07-25T22:10:07.231Z,1.50
2022-07-25T22:15:13.760Z,2.88
2022-07-25T22:20:17.569Z,1.20
2022-07-25T22:25:21.189Z,1.17
2022-07-25T22:30:26.659Z,1.92
2022-07-25T22:35:30.348Z,2.03
2022-07-25T22:40:33.944Z,3.60
2022-07-25T22:45:42.914Z,3.20
2022-07-25T22:50:47.068Z,2.20
2022-07-25T22:55:52.918Z,1.25
2022-07-25T23:00:58.196Z,1.27
2022-07-25T23:06:01.936Z,1.48
2022-07-25T23:11:05.675Z,2.10
2022-07-25T23:16:11.021Z,2.27
2022-07-25T23:21:14.629Z,2.60
2022-07-25T23:26:18.397Z,1.42
2022-07-25T23:31:23.701Z,1.53
2022-07-25T23:36:27.332Z,1.77
2022-07-25T23:41:30.894Z,2.47
2022-07-25T23:46:36.124Z,2.47
2022-07-25T23:51:40.231Z,1.50
2022-07-25T23:56:43.853Z,1.55
